Time;durP1;ratioP1;P1;durP2;ratioP2;P2;SDS_P1;SDS_P2;PMS_P1;PMS_P2;Temp;Humidity;BMP_temperature;BMP_pressure;BME280_temperature;BME280_humidity;BME280_pressure;Samples;Min_cycle;Max_cycle;Signal;HPM_P1;HPM_P2
2023/12/29 00:01:46;;;;;;;7.82;4.28;;;;;;;10.30;51.22;99406.28;4939710;29;20046;-79
2023/12/29 00:04:12;;;;;;;7.75;4.93;;;;;;;10.27;51.59;99404.69;4939962;29;20503;-79
2023/12/29 00:06:38;;;;;;;7.88;4.20;;;;;;;10.23;51.19;99394.53;4939250;29;20043;-77
2023/12/29 00:09:04;;;;;;;7.40;4.78;;;;;;;10.29;50.96;99409.81;4923829;29;20051;-78
2023/12/29 00:11:29;;;;;;;7.30;4.60;;;;;;;10.29;51.19;99404.59;4923962;29;20043;-78
2023/12/29 00:13:55;;;;;;;8.13;4.60;;;;;;;10.22;51.12;99404.16;4939594;29;20582;-79
2023/12/29 00:16:21;;;;;;;8.82;4.80;;;;;;;10.24;51.05;99406.66;4939609;29;20031;-78
2023/12/29 00:18:46;;;;;;;6.68;4.40;;;;;;;10.21;51.06;99407.69;4919811;29;20027;-77
2023/12/29 00:21:12;;;;;;;9.77;5.00;;;;;;;10.14;51.12;99385.56;4923653;29;20062;-79
2023/12/29 00:23:37;;;;;;;7.47;4.65;;;;;;;10.15;51.36;99410.69;4939344;29;20027;-78
2023/12/29 00:26:03;;;;;;;6.80;4.40;;;;;;;10.08;51.12;99402.41;4939008;29;20126;-78
2023/12/29 00:28:28;;;;;;;8.63;4.75;;;;;;;10.08;50.96;99405.03;4923498;29;20127;-78
2023/12/29 00:30:54;;;;;;;8.88;4.80;;;;;;;10.07;51.01;99403.38;4939157;29;20031;-78
2023/12/29 00:33:19;;;;;;;9.88;4.80;;;;;;;10.03;51.13;99403.66;4939229;29;20061;-78
2023/12/29 00:35:45;;;;;;;9.65;5.00;;;;;;;9.99;51.27;99405.59;4923338;29;20031;-77
2023/12/29 00:38:10;;;;;;;9.65;5.40;;;;;;;9.90;51.05;99396.59;4939090;29;20042;-79
2023/12/29 00:40:36;;;;;;;7.95;5.38;;;;;;;9.93;51.01;99409.44;4938759;29;20483;-78
2023/12/29 00:43:01;;;;;;;9.32;4.88;;;;;;;9.90;51.11;99401.81;4923391;29;20035;-79
2023/12/29 00:45:32;;;;;;;8.10;5.45;;;;;;;9.92;51.03;99397.34;4922461;29;20411;-78
2023/12/29 00:47:59;;;;;;;8.07;5.03;;;;;;;9.88;51.11;99397.63;4955072;29;20085;-78
2023/12/29 00:50:24;;;;;;;10.48;4.95;;;;;;;9.82;51.10;99391.03;4939024;29;20091;-78
2023/12/29 00:52:50;;;;;;;8.20;5.10;;;;;;;9.85;51.02;99397.81;4923248;29;20456;-78
2023/12/29 00:55:15;;;;;;;7.60;4.50;;;;;;;9.79;51.03;99393.84;4923153;29;20062;-78
2023/12/29 00:57:41;;;;;;;6.25;4.40;;;;;;;9.83;50.99;99399.69;4922775;29;20518;-77
2023/12/29 01:00:10;;;;;;;6.85;4.55;;;;;;;9.81;51.17;99399.78;4922842;29;20520;-78
2023/12/29 01:02:36;;;;;;;7.10;4.18;;;;;;;9.77;51.34;99396.53;4923044;29;20460;-77
2023/12/29 01:05:01;;;;;;;8.00;4.28;;;;;;;9.75;51.27;99400.16;4938864;29;20062;-78
2023/12/29 01:07:27;;;;;;;5.90;3.67;;;;;;;9.71;51.24;99391.72;4938901;29;20027;-77
2023/12/29 01:09:52;;;;;;;6.65;4.00;;;;;;;9.74;51.16;99391.50;4939607;29;20042;-78
2023/12/29 01:12:18;;;;;;;5.53;3.60;;;;;;;9.74;51.05;99394.13;4939328;29;20054;-77
2023/12/29 01:14:43;;;;;;;7.72;3.85;;;;;;;9.73;50.91;99394.22;4922643;29;20043;-78
2023/12/29 01:17:09;;;;;;;7.53;3.67;;;;;;;9.68;51.42;99385.84;4938527;29;20031;-78
2023/12/29 01:19:34;;;;;;;9.05;4.00;;;;;;;9.66;51.21;99379.88;4922528;29;20476;-77
2023/12/29 01:22:00;;;;;;;8.05;4.00;;;;;;;9.63;51.46;99380.06;4922503;29;20031;-78
2023/12/29 01:24:25;;;;;;;7.15;3.92;;;;;;;9.61;51.21;99382.75;4938062;29;20043;-79
2023/12/29 01:26:51;;;;;;;7.75;4.00;;;;;;;9.59;51.42;99375.03;4938287;29;20469;-79
2023/12/29 01:29:16;;;;;;;8.38;4.00;;;;;;;9.58;51.28;99378.59;4938280;29;20046;-77
2023/12/29 01:31:41;;;;;;;8.57;4.07;;;;;;;9.59;51.14;99366.41;4937491;29;20038;-80
2023/12/29 01:34:07;;;;;;;7.72;4.45;;;;;;;9.56;51.36;99371.78;4937303;29;20411;-77
2023/12/29 01:36:32;;;;;;;8.73;4.38;;;;;;;9.55;51.26;99364.91;4922168;29;20024;-78
2023/12/29 01:38:59;;;;;;;10.32;5.00;;;;;;;9.51;51.20;99356.44;4922406;29;20209;-77
2023/12/29 01:41:24;;;;;;;7.15;4.82;;;;;;;9.54;51.18;99363.25;4938013;29;20027;-78
2023/12/29 01:43:59;;;;;;;7.10;4.30;;;;;;;9.53;51.01;99358.94;4937911;29;20141;-79
2023/12/29 01:46:28;;;;;;;7.30;4.38;;;;;;;9.53;51.17;99357.16;4954920;29;20031;-78
2023/12/29 01:48:54;;;;;;;9.68;4.03;;;;;;;9.49;51.26;99339.22;4921572;29;20110;-79
2023/12/29 01:51:20;;;;;;;7.80;4.35;;;;;;;9.54;51.55;99356.25;4937698;29;20039;-78
2023/12/29 01:53:46;;;;;;;8.02;4.07;;;;;;;9.50;51.38;99354.75;4921710;29;20027;-77
2023/12/29 01:56:11;;;;;;;8.48;3.97;;;;;;;9.49;51.25;99347.03;4937022;29;20035;-76
2023/12/29 01:58:37;;;;;;;7.13;4.20;;;;;;;9.46;51.25;99345.47;4937571;29;20031;-77
2023/12/29 02:01:02;;;;;;;7.57;4.20;;;;;;;9.46;51.34;99342.03;4922396;29;20113;-78
2023/12/29 02:03:28;;;;;;;8.00;4.32;;;;;;;9.43;51.44;99332.63;4937582;29;20395;-78
2023/12/29 02:05:54;;;;;;;6.88;4.28;;;;;;;9.37;51.21;99330.41;4938097;29;20042;-79
2023/12/29 02:08:21;;;;;;;6.63;4.15;;;;;;;9.36;50.82;99318.28;4937571;29;20031;-79
2023/12/29 02:10:47;;;;;;;7.43;4.60;;;;;;;9.37;51.33;99328.63;4921721;29;20054;-78
2023/12/29 02:13:12;;;;;;;6.97;4.60;;;;;;;9.35;51.18;99324.47;4937308;29;20502;-77
2023/12/29 02:15:38;;;;;;;9.77;4.55;;;;;;;9.31;51.12;99321.19;4937485;29;20368;-78
2023/12/29 02:18:04;;;;;;;8.02;4.43;;;;;;;9.27;50.96;99324.09;4921603;29;20039;-79
2023/12/29 02:20:29;;;;;;;10.90;4.55;;;;;;;9.21;51.22;99318.31;4937685;29;20102;-76
2023/12/29 02:22:55;;;;;;;10.23;4.90;;;;;;;9.28;51.04;99317.94;4937407;29;20497;-77
2023/12/29 02:25:20;;;;;;;9.13;4.97;;;;;;;9.22;51.00;99313.97;4921658;29;20528;-89
2023/12/29 02:27:57;;;;;;;9.00;5.63;;;;;;;9.24;51.13;99310.31;4937433;29;20031;-78
2023/12/29 02:30:45;;;;;;;10.20;5.10;;;;;;;9.23;51.15;99308.66;4937018;29;20035;-76
2023/12/29 02:33:14;;;;;;;13.27;6.60;;;;;;;9.18;51.23;99302.03;4921868;29;20038;-77
2023/12/29 02:35:42;;;;;;;8.65;5.28;;;;;;;9.24;51.37;99317.28;4920998;29;20035;-77
2023/12/29 02:38:07;;;;;;;7.70;5.13;;;;;;;9.26;51.22;99315.44;4937137;29;20094;-77
2023/12/29 02:40:33;;;;;;;9.13;4.93;;;;;;;9.22;51.10;99317.38;4921772;29;20039;-76
2023/12/29 02:42:58;;;;;;;9.23;5.10;;;;;;;9.24;51.14;99315.53;4937025;29;20034;-76
2023/12/29 02:45:24;;;;;;;8.57;4.72;;;;;;;9.20;51.27;99305.38;4920955;29;20065;-77
2023/12/29 02:47:49;;;;;;;8.75;5.13;;;;;;;9.21;51.19;99307.88;4937625;29;20043;-76
2023/12/29 02:50:15;;;;;;;7.47;4.93;;;;;;;9.19;51.09;99312.38;4936796;29;20031;-77
2023/12/29 02:52:41;;;;;;;8.48;4.90;;;;;;;9.14;51.41;99304.00;4936940;29;20030;-77
2023/12/29 02:55:06;;;;;;;9.48;4.80;;;;;;;9.12;51.09;99311.06;4921502;29;20423;-78
2023/12/29 02:57:32;;;;;;;8.25;4.38;;;;;;;9.06;51.40;99298.41;4920948;29;20039;-77
2023/12/29 02:59:57;;;;;;;7.55;3.70;;;;;;;9.07;51.42;99307.06;4936933;29;20047;-77
2023/12/29 03:02:23;;;;;;;13.75;4.72;;;;;;;9.05;51.34;99312.38;4953071;29;20106;-77
2023/12/29 03:04:49;;;;;;;6.97;4.07;;;;;;;9.02;51.53;99305.56;4936734;29;20569;-77
2023/12/29 03:07:14;;;;;;;7.43;4.40;;;;;;;9.01;51.62;99308.28;4937958;29;20054;-78
2023/12/29 03:09:40;;;;;;;5.20;3.70;;;;;;;9.00;51.58;99302.25;4925051;29;20047;-77
2023/12/29 03:12:06;;;;;;;7.10;3.65;;;;;;;8.98;51.68;99296.28;4940781;29;20027;-77
2023/12/29 03:14:31;;;;;;;7.93;4.00;;;;;;;8.92;51.30;99288.84;4957170;29;20471;-78
2023/12/29 03:16:57;;;;;;;6.25;3.70;;;;;;;8.87;51.73;99275.25;4940543;29;20051;-79
2023/12/29 03:19:22;;;;;;;7.07;4.10;;;;;;;8.98;51.68;99295.44;4925029;29;20034;-78
2023/12/29 03:21:48;;;;;;;6.13;3.58;;;;;;;8.98;51.50;99303.25;4958154;29;20035;-77
2023/12/29 03:24:14;;;;;;;6.25;4.05;;;;;;;8.92;51.37;99285.38;4940540;29;20487;-78
2023/12/29 03:26:39;;;;;;;7.35;4.00;;;;;;;8.97;51.09;99297.22;4941062;29;20042;-79
2023/12/29 03:29:05;;;;;;;8.82;4.53;;;;;;;8.93;51.39;99287.06;4940560;29;20035;-77
2023/12/29 03:31:30;;;;;;;8.93;4.50;;;;;;;8.96;51.44;99302.50;4940634;29;20035;-76
2023/12/29 03:33:55;;;;;;;5.43;3.55;;;;;;;8.90;51.54;99298.50;4940282;29;20061;-77
2023/12/29 03:36:21;;;;;;;7.45;4.40;;;;;;;8.84;51.36;99289.31;4940069;29;20144;-76
2023/12/29 03:38:46;;;;;;;7.72;4.45;;;;;;;8.82;51.57;99283.38;4956597;29;20102;-77
2023/12/29 03:41:12;;;;;;;9.10;3.85;;;;;;;8.83;51.54;99289.41;4940442;29;20031;-77
2023/12/29 03:43:37;;;;;;;8.57;4.18;;;;;;;8.79;51.31;99286.16;4924328;29;20038;-77
2023/12/29 03:46:03;;;;;;;7.68;3.80;;;;;;;8.81;51.41;99293.88;4924210;29;20059;-76
2023/12/29 03:48:29;;;;;;;6.25;3.92;;;;;;;8.79;51.02;99287.91;4924171;29;20466;-77
2023/12/29 03:50:54;;;;;;;7.57;4.38;;;;;;;8.76;51.26;99288.94;4955645;28;20415;-77
2023/12/29 03:53:20;;;;;;;7.38;4.20;;;;;;;8.78;51.23;99294.88;4923962;29;20031;-78
2023/12/29 03:55:45;;;;;;;7.43;3.85;;;;;;;8.71;51.58;99282.31;4936008;29;20027;-77
2023/12/29 03:58:11;;;;;;;6.10;3.90;;;;;;;8.71;51.25;99285.75;4924520;29;20039;-78
2023/12/29 04:00:36;;;;;;;7.53;4.38;;;;;;;8.73;50.88;99288.25;4939482;29;20113;-78
2023/12/29 04:03:02;;;;;;;9.02;4.00;;;;;;;8.72;51.47;99289.22;4939469;29;20418;-77
2023/12/29 04:05:28;;;;;;;5.90;3.33;;;;;;;8.70;51.30;99281.50;4923906;29;20479;-79
2023/12/29 04:07:53;;;;;;;6.47;4.05;;;;;;;8.66;51.29;99275.63;4923723;29;20510;-78
2023/12/29 04:10:19;;;;;;;6.93;3.72;;;;;;;8.72;51.09;99289.22;4939780;29;20031;-77
2023/12/29 04:12:44;;;;;;;7.95;3.58;;;;;;;8.74;51.06;99289.94;4939730;29;20058;-77
2023/12/29 04:15:10;;;;;;;6.82;3.97;;;;;;;8.72;51.34;99282.22;4939574;29;20082;-77
2023/12/29 04:17:35;;;;;;;7.78;3.85;;;;;;;8.69;51.05;99279.81;4923489;29;20087;-78
2023/12/29 04:20:01;;;;;;;5.13;3.25;;;;;;;8.67;51.44;99279.06;4923708;29;20066;-77
2023/12/29 04:22:26;;;;;;;6.50;3.90;;;;;;;8.66;51.44;99274.78;4939405;29;20423;-77
2023/12/29 04:24:52;;;;;;;6.85;4.00;;;;;;;8.62;51.13;99268.13;4923490;29;20050;-76
2023/12/29 04:27:18;;;;;;;9.05;4.35;;;;;;;8.60;51.13;99278.63;4923514;29;20102;-76
2023/12/29 04:29:45;;;;;;;7.75;4.18;;;;;;;8.53;51.30;99269.47;4923350;29;20043;-77
2023/12/29 04:32:10;;;;;;;7.35;3.40;;;;;;;8.55;51.15;99282.41;4922984;29;20125;-77
2023/12/29 04:34:36;;;;;;;8.45;4.00;;;;;;;8.53;51.31;99285.09;4938961;29;20031;-77
2023/12/29 04:37:01;;;;;;;6.70;3.95;;;;;;;8.55;51.42;99280.63;4922941;29;20035;-77
2023/12/29 04:39:27;;;;;;;5.70;3.88;;;;;;;8.52;51.21;99278.19;4923319;29;20113;-75
2023/12/29 04:41:52;;;;;;;6.53;3.75;;;;;;;8.49;51.22;99278.38;4935844;29;20039;-74
2023/12/29 04:44:18;;;;;;;6.32;3.55;;;;;;;8.44;51.19;99273.44;4911528;29;20032;-84
2023/12/29 04:46:44;;;;;;;7.05;4.13;;;;;;;8.40;51.33;99274.53;4903797;29;20052;-85
2023/12/29 04:49:09;;;;;;;6.80;3.67;;;;;;;8.40;51.48;99278.91;4936819;29;20488;-78
2023/12/29 04:51:35;;;;;;;13.18;3.63;;;;;;;9.17;74.28;99280.38;4956024;29;20110;-82
2023/12/29 04:54:00;;;;;;;15.50;3.80;;;;;;;9.26;71.62;99272.91;4939485;29;20031;-87
2023/12/29 04:56:26;;;;;;;13.27;4.00;;;;;;;9.44;69.82;99271.78;4923301;29;20043;-91
2023/12/29 04:58:51;;;;;;;5.32;3.38;;;;;;;9.52;67.70;99279.94;4924210;29;20429;-85
2023/12/29 05:01:17;;;;;;;6.93;3.72;;;;;;;9.41;63.03;99282.38;4959042;29;20035;-87
2023/12/29 05:03:43;;;;;;;9.45;3.63;;;;;;;9.39;62.55;99289.44;4964891;29;20059;-84
2023/12/29 05:06:09;;;;;;;7.97;3.85;;;;;;;9.35;61.55;99280.16;4960485;29;20043;-88
2023/12/29 05:08:34;;;;;;;9.23;4.03;;;;;;;9.27;60.91;99265.00;4960311;29;20039;-84
2023/12/29 05:11:00;;;;;;;7.63;3.55;;;;;;;9.21;60.29;99271.41;4949083;29;20023;-88
2023/12/29 05:13:26;;;;;;;8.30;4.38;;;;;;;9.17;59.60;99288.19;4940933;29;20051;-78
2023/12/29 05:15:51;;;;;;;7.63;3.63;;;;;;;9.22;61.62;99288.72;4957429;29;20063;-81
2023/12/29 05:18:16;;;;;;;7.32;3.83;;;;;;;9.19;60.52;99278.50;4954865;29;20031;-79
2023/12/29 05:20:43;;;;;;;10.85;4.20;;;;;;;9.15;59.63;99284.00;4922618;29;20525;-82
2023/12/29 05:23:08;;;;;;;7.90;3.80;;;;;;;9.09;59.22;99284.38;4938225;29;20043;-84
2023/12/29 05:25:34;;;;;;;7.00;4.13;;;;;;;9.07;58.46;99287.06;4938755;29;20038;-85
2023/12/29 05:27:59;;;;;;;6.90;3.88;;;;;;;9.02;58.19;99283.91;4923010;29;20058;-84
2023/12/29 05:30:26;;;;;;;10.20;4.05;;;;;;;9.02;57.82;99289.94;4921895;29;20035;-82
2023/12/29 05:32:52;;;;;;;7.75;4.13;;;;;;;8.93;57.22;99289.69;4955250;29;20036;-82
2023/12/29 05:35:18;;;;;;;6.63;4.32;;;;;;;8.97;56.85;99293.78;4938700;29;20039;-82
2023/12/29 05:37:45;;;;;;;7.22;4.00;;;;;;;8.96;56.40;99302.50;4960056;28;20031;-83
2023/12/29 05:40:11;;;;;;;7.07;4.25;;;;;;;8.95;56.55;99300.81;4924666;29;20403;-84
2023/12/29 05:42:36;;;;;;;6.88;4.05;;;;;;;8.94;55.83;99301.78;4937840;29;20121;-85
2023/12/29 05:45:02;;;;;;;7.90;4.30;;;;;;;8.92;55.41;99299.25;4923136;29;20526;-85
2023/12/29 05:47:27;;;;;;;8.10;4.10;;;;;;;8.91;55.35;99301.97;4921786;29;20589;-84
2023/12/29 05:49:53;;;;;;;6.10;3.78;;;;;;;8.88;55.02;99290.78;4922101;29;20038;-85
2023/12/29 05:52:18;;;;;;;6.32;4.00;;;;;;;8.91;54.95;99287.16;4953834;29;20051;-85
2023/12/29 05:54:44;;;;;;;5.97;3.72;;;;;;;8.95;54.26;99290.41;4921332;29;20126;-86
2023/12/29 05:57:10;;;;;;;6.30;4.00;;;;;;;9.15;54.03;99287.44;4937701;29;20027;-83
2023/12/29 05:59:35;;;;;;;7.10;4.15;;;;;;;9.51;52.87;99287.84;4937506;29;20065;-82
2023/12/29 06:02:01;;;;;;;7.00;4.10;;;;;;;9.93;51.98;99288.63;4921855;29;20415;-85
2023/12/29 06:04:26;;;;;;;6.32;4.22;;;;;;;10.46;50.80;99286.06;4921919;29;20440;-83
2023/12/29 06:06:52;;;;;;;8.55;4.10;;;;;;;11.08;49.53;99292.34;4921900;29;20039;-84
2023/12/29 06:09:18;;;;;;;7.38;4.32;;;;;;;11.77;48.02;99290.88;4953963;29;20031;-84
2023/12/29 06:11:43;;;;;;;8.98;4.63;;;;;;;12.55;46.67;99286.06;4937816;29;20407;-85
2023/12/29 06:14:10;;;;;;;7.00;4.38;;;;;;;13.37;44.93;99285.88;4922057;29;20495;-83
2023/12/29 06:16:35;;;;;;;10.02;4.75;;;;;;;14.19;42.63;99283.75;4937772;29;20035;-85
2023/12/29 06:19:01;;;;;;;7.93;4.35;;;;;;;14.97;40.81;99282.41;4919407;29;20518;-80
2023/12/29 06:21:26;;;;;;;8.23;4.50;;;;;;;15.44;39.90;99281.88;4936388;29;20043;-78
2023/12/29 06:23:52;;;;;;;11.95;5.40;;;;;;;16.40;38.04;99281.28;4916846;29;20047;-79
2023/12/29 06:26:18;;;;;;;12.48;5.63;;;;;;;16.37;37.37;99279.75;4927762;29;20443;-77
2023/12/29 06:28:45;;;;;;;538.70;139.63;;;;;;;16.74;51.33;99283.41;4936003;29;20027;-76
2023/12/29 06:31:11;;;;;;;485.75;113.18;;;;;;;17.36;48.74;99287.22;4936092;29;20043;-75
2023/12/29 06:33:36;;;;;;;333.33;85.43;;;;;;;17.45;44.38;99280.22;4920327;29;20470;-74
2023/12/29 06:36:02;;;;;;;292.30;79.15;;;;;;;17.97;43.38;99279.63;4936162;29;20488;-76
2023/12/29 06:38:28;;;;;;;221.05;61.50;;;;;;;18.88;38.70;99282.94;4920689;29;20236;-77
2023/12/29 06:40:53;;;;;;;139.25;44.58;;;;;;;19.59;35.81;99287.00;4936212;29;20572;-77
2023/12/29 06:43:19;;;;;;;112.05;34.20;;;;;;;20.53;33.35;99297.41;4936041;29;20483;-79
2023/12/29 06:45:44;;;;;;;94.72;28.85;;;;;;;20.87;31.82;99283.91;4936667;29;20034;-78
2023/12/29 06:48:10;;;;;;;84.75;28.67;;;;;;;20.62;32.53;99288.44;4952041;28;20043;-82
2023/12/29 06:50:36;;;;;;;77.07;26.30;;;;;;;21.27;33.24;99286.63;4935122;29;20125;-78
2023/12/29 06:53:02;;;;;;;57.97;20.13;;;;;;;22.24;30.43;99288.84;4911661;29;20118;-77
2023/12/29 06:55:28;;;;;;;45.85;16.58;;;;;;;22.57;28.81;99278.75;4936364;29;20031;-77
2023/12/29 06:57:53;;;;;;;38.00;13.85;;;;;;;22.44;28.09;99275.91;4932455;29;20495;-81
2023/12/29 07:00:19;;;;;;;30.00;10.52;;;;;;;22.66;27.50;99278.69;4917985;29;20046;-81
2023/12/29 07:02:45;;;;;;;26.33;8.77;;;;;;;22.79;27.04;99268.25;4929684;29;20045;-79
2023/12/29 07:05:10;;;;;;;16.13;7.18;;;;;;;22.81;27.05;99271.53;4950609;29;20043;-79
2023/12/29 07:07:37;;;;;;;13.82;6.05;;;;;;;23.00;26.69;99264.00;4903905;29;20036;-83
2023/12/29 07:10:03;;;;;;;56.90;18.40;;;;;;;23.15;35.43;99264.00;4931395;29;20142;-79
2023/12/29 07:12:30;;;;;;;64.70;18.00;;;;;;;23.40;36.43;99269.84;4901269;29;20121;-80
2023/12/29 07:14:56;;;;;;;45.25;15.18;;;;;;;23.60;35.35;99267.41;4918876;29;20043;-80
2023/12/29 07:17:22;;;;;;;39.67;13.02;;;;;;;23.77;34.04;99270.69;4934417;29;20053;-71
2023/12/29 07:19:47;;;;;;;46.38;12.30;;;;;;;23.92;34.72;99276.78;4954618;29;20438;-73
2023/12/29 07:22:13;;;;;;;44.60;12.35;;;;;;;24.07;34.50;99276.75;4936075;29;20062;-73
2023/12/29 07:24:38;;;;;;;44.95;11.80;;;;;;;24.14;34.11;99271.47;4936708;29;20043;-73
2023/12/29 07:27:04;;;;;;;37.78;10.10;;;;;;;24.18;33.78;99270.06;4933175;29;20043;-79
2023/12/29 07:29:30;;;;;;;36.22;9.48;;;;;;;24.26;33.00;99263.75;4934110;29;20663;-73
2023/12/29 07:31:55;;;;;;;28.10;9.73;;;;;;;24.38;32.98;99275.53;4949565;28;20088;-76
2023/12/29 07:34:21;;;;;;;30.85;8.05;;;;;;;24.55;31.00;99273.41;4935271;29;20043;-76
2023/12/29 07:36:47;;;;;;;24.75;7.70;;;;;;;24.65;31.79;99273.91;4919448;29;20504;-73
2023/12/29 07:39:12;;;;;;;24.20;8.73;;;;;;;24.80;31.42;99273.81;4919187;29;20047;-73
2023/12/29 07:41:44;;;;;;;28.05;8.65;;;;;;;24.96;31.24;99278.00;4935215;29;20046;-77
2023/12/29 07:44:14;;;;;;;22.90;9.07;;;;;;;25.17;29.84;99273.59;4935573;29;20031;-74
2023/12/29 07:46:40;;;;;;;27.27;9.63;;;;;;;25.24;29.26;99274.44;4916486;29;20214;-73
2023/12/29 07:49:05;;;;;;;33.92;11.35;;;;;;;25.39;29.31;99272.47;4932366;29;20562;-78
2023/12/29 07:51:31;;;;;;;29.80;11.43;;;;;;;25.57;28.44;99279.09;4910484;29;20059;-77
2023/12/29 07:53:57;;;;;;;29.70;11.43;;;;;;;25.60;29.89;99286.72;4952457;28;20043;-77
2023/12/29 07:56:22;;;;;;;29.42;11.25;;;;;;;25.67;30.24;99290.25;4937876;29;20126;-72
2023/12/29 07:58:48;;;;;;;24.27;11.00;;;;;;;25.72;30.10;99290.44;4922540;29;20106;-73
2023/12/29 08:01:13;;;;;;;26.08;10.95;;;;;;;25.86;30.73;99290.50;4953818;29;20067;-72
2023/12/29 08:03:39;;;;;;;37.38;11.55;;;;;;;25.94;30.57;99293.78;4938019;29;20039;-74
2023/12/29 08:06:05;;;;;;;31.90;11.77;;;;;;;25.88;29.55;99296.47;4937347;29;20031;-71
2023/12/29 08:08:30;;;;;;;30.35;13.88;;;;;;;25.78;27.09;99291.50;4936130;29;20106;-73
2023/12/29 08:10:56;;;;;;;35.75;14.82;;;;;;;25.63;27.00;99294.34;4937818;29;20070;-74
2023/12/29 08:13:21;;;;;;;26.98;14.50;;;;;;;25.49;26.82;99287.31;4938104;29;20578;-71
2023/12/29 08:15:47;;;;;;;30.17;14.82;;;;;;;25.40;26.43;99284.00;4937495;29;20071;-74
2023/12/29 08:18:13;;;;;;;30.67;14.18;;;;;;;25.55;25.47;99291.84;4914001;29;20039;-73
2023/12/29 08:20:38;;;;;;;29.80;14.77;;;;;;;25.67;25.44;99292.91;4921492;29;20145;-73
2023/12/29 08:23:04;;;;;;;27.38;13.07;;;;;;;25.71;26.64;99290.66;4937915;29;20034;-73
2023/12/29 08:25:29;;;;;;;22.70;13.65;;;;;;;25.86;25.74;99295.84;4954365;28;20557;-76
2023/12/29 08:27:58;;;;;;;23.58;13.50;;;;;;;25.96;25.45;99298.94;4934218;29;20036;-73
2023/12/29 08:30:23;;;;;;;34.13;13.32;;;;;;;26.01;28.80;99296.50;4937260;29;20053;-72
2023/12/29 08:32:49;;;;;;;24.83;13.63;;;;;;;26.06;27.66;99302.06;4955732;29;20130;-71
2023/12/29 08:35:14;;;;;;;23.80;12.70;;;;;;;26.12;27.59;99313.78;4954592;29;20035;-72
2023/12/29 08:37:40;;;;;;;24.58;13.30;;;;;;;26.15;26.31;99306.19;4916661;29;20036;-72
2023/12/29 08:40:07;;;;;;;22.70;14.07;;;;;;;26.04;23.97;99295.28;4919883;29;20067;-85
2023/12/29 08:42:33;;;;;;;23.35;14.07;;;;;;;26.00;22.94;99298.34;4903768;29;20042;-73
2023/12/29 08:45:00;;;;;;;21.92;14.10;;;;;;;25.96;23.91;99299.75;4955207;29;20038;-78
2023/12/29 08:47:26;;;;;;;23.42;11.90;;;;;;;26.14;22.65;99301.88;4953199;29;20035;-78
2023/12/29 08:49:54;;;;;;;22.52;12.00;;;;;;;26.34;22.31;99301.03;4952641;29;20412;-79
2023/12/29 08:52:19;;;;;;;;;;;;;;;26.67;21.75;99306.41;4954789;29;20055;-76
2023/12/29 08:54:45;;;;;;;18.90;12.10;;;;;;;26.92;20.88;99304.94;4922612;29;20275;-77
2023/12/29 08:57:10;;;;;;;17.63;11.43;;;;;;;27.31;20.57;99301.34;4922273;29;20090;-78
2023/12/29 08:59:36;;;;;;;21.40;11.40;;;;;;;27.88;20.16;99295.25;4938138;29;20042;-78
2023/12/29 09:02:01;;;;;;;18.88;9.90;;;;;;;28.36;19.41;99293.91;4937607;29;20047;-77
2023/12/29 09:04:27;;;;;;;20.27;11.10;;;;;;;28.81;19.08;99299.06;4954048;29;20514;-78
2023/12/29 09:06:53;;;;;;;17.10;12.13;;;;;;;29.13;18.57;99285.50;4954536;28;20079;-78
2023/12/29 09:09:18;;;;;;;17.85;10.68;;;;;;;29.42;18.10;99289.31;4954152;29;20027;-78
2023/12/29 09:11:44;;;;;;;15.85;10.38;;;;;;;29.51;17.98;99285.25;4938337;29;20033;-79
2023/12/29 09:14:10;;;;;;;16.85;11.07;;;;;;;29.52;18.20;99278.81;4953956;29;20054;-77
2023/12/29 09:16:35;;;;;;;17.70;10.68;;;;;;;29.50;17.90;99280.91;4921828;29;20434;-78
2023/12/29 09:19:01;;;;;;;19.15;11.27;;;;;;;29.44;18.10;99270.25;4954374;29;20035;-77
2023/12/29 09:21:26;;;;;;;18.05;10.57;;;;;;;29.29;17.98;99268.78;4953727;29;20043;-79
2023/12/29 09:23:52;;;;;;;20.08;10.93;;;;;;;29.27;18.35;99278.97;4922384;29;20035;-78
2023/12/29 09:26:18;;;;;;;15.65;11.00;;;;;;;29.17;18.13;99270.56;4937176;29;20448;-79
2023/12/29 09:28:44;;;;;;;13.85;10.10;;;;;;;29.09;18.03;99274.38;4947075;29;20102;-77
2023/12/29 09:31:10;;;;;;;13.98;9.40;;;;;;;29.20;17.78;99270.16;4906433;29;20042;-77
2023/12/29 09:33:36;;;;;;;12.73;10.23;;;;;;;29.11;17.81;99256.16;4937830;29;20039;-77
2023/12/29 09:36:02;;;;;;;14.52;10.25;;;;;;;29.09;18.02;99262.81;4937274;29;20510;-76
2023/12/29 09:38:28;;;;;;;18.48;11.65;;;;;;;29.37;17.64;99251.53;4921183;29;20134;-77
2023/12/29 09:40:54;;;;;;;18.15;11.48;;;;;;;29.36;17.80;99242.63;4934841;29;20126;-77
2023/12/29 09:43:19;;;;;;;16.92;9.70;;;;;;;30.15;17.52;99257.03;4905681;29;20031;-79
2023/12/29 09:45:45;;;;;;;17.80;9.68;;;;;;;30.89;16.60;99254.66;4923404;29;20027;-76
2023/12/29 09:48:10;;;;;;;13.68;10.82;;;;;;;31.45;16.15;99252.28;4921429;29;20124;-76
2023/12/29 09:50:36;;;;;;;15.20;8.25;;;;;;;32.28;18.82;99254.53;4906059;29;20055;-72
2023/12/29 09:53:02;;;;;;;26.15;8.20;;;;;;;33.11;21.17;99261.88;4906233;29;20027;-74
2023/12/29 09:55:27;;;;;;;14.93;7.95;;;;;;;33.62;20.72;99248.94;4922022;29;20114;-73
2023/12/29 09:57:53;;;;;;;17.40;7.10;;;;;;;33.95;20.44;99246.25;4905941;29;20039;-76
2023/12/29 10:00:18;;;;;;;21.02;7.05;;;;;;;34.37;19.91;99243.59;4937633;29;20380;-75
2023/12/29 10:02:45;;;;;;;12.73;6.72;;;;;;;34.55;19.04;99236.13;4937442;29;20130;-75
2023/12/29 10:05:11;;;;;;;17.42;7.13;;;;;;;34.89;18.15;99230.34;4937469;29;20481;-76
2023/12/29 10:07:40;;;;;;;15.48;7.25;;;;;;;35.21;17.10;99224.75;4954840;29;20042;-73
2023/12/29 10:10:06;;;;;;;11.25;7.75;;;;;;;35.45;16.32;99227.00;4938172;29;20114;-69
2023/12/29 10:12:32;;;;;;;17.50;8.20;;;;;;;35.21;15.42;99216.59;4937655;29;20046;-75
2023/12/29 10:15:12;;;;;;;16.75;8.18;;;;;;;35.12;15.22;99219.03;4905954;29;20031;-76
2023/12/29 10:17:59;;;;;;;17.88;8.27;;;;;;;34.99;15.19;99213.31;4954176;28;20042;-75
2023/12/29 10:20:28;;;;;;;;;;;;;;;34.94;16.14;99201.34;4954922;29;20023;-71
2023/12/29 10:23:08;;;;;;;17.38;7.70;;;;;;;34.56;15.57;99203.34;4954331;29;19914;-73
2023/12/29 10:25:34;;;;;;;17.13;8.10;;;;;;;34.03;15.45;99199.72;4921687;29;20566;-71
2023/12/29 10:27:59;;;;;;;32.72;7.80;;;;;;;33.62;17.67;99199.38;4936968;29;20043;-74
2023/12/29 10:30:25;;;;;;;22.75;8.00;;;;;;;33.05;18.54;99203.41;4922017;29;20074;-70
2023/12/29 10:32:50;;;;;;;18.17;7.40;;;;;;;32.25;18.65;99203.72;4921224;29;20035;-70
2023/12/29 10:35:16;;;;;;;19.45;7.20;;;;;;;31.69;19.82;99190.13;4905519;29;20082;-69
2023/12/29 10:37:41;;;;;;;42.00;14.90;;;;;;;31.15;20.60;99185.09;4937052;29;20113;-70
2023/12/29 10:40:08;;;;;;;46.67;14.93;;;;;;;30.51;21.14;99179.78;4920932;29;20062;-72
2023/12/29 10:42:33;;;;;;;38.80;14.38;;;;;;;30.09;21.46;99176.16;4931601;29;20122;-72
2023/12/29 10:45:08;;;;;;;39.67;13.25;;;;;;;29.59;21.66;99168.47;4916797;29;20543;-72
2023/12/29 10:47:35;;;;;;;36.05;12.55;;;;;;;29.07;21.71;99177.03;4916742;29;20423;-81
2023/12/29 10:50:03;;;;;;;27.27;11.25;;;;;;;28.49;21.48;99165.69;4933729;29;20035;-79
2023/12/29 10:52:29;;;;;;;33.35;10.60;;;;;;;28.20;21.40;99172.63;4902268;29;20047;-78
2023/12/29 10:55:04;;;;;;;16.48;8.68;;;;;;;27.82;21.24;99178.09;4917901;29;20054;-81
2023/12/29 10:57:30;;;;;;;18.90;8.23;;;;;;;27.49;21.15;99169.25;4902616;29;20440;-79
2023/12/29 11:00:00;;;;;;;14.68;8.52;;;;;;;27.15;21.42;99165.94;4902714;29;20069;-81
2023/12/29 11:02:26;;;;;;;14.35;7.45;;;;;;;26.75;21.69;99159.94;4919222;29;20488;-81
2023/12/29 11:04:52;;;;;;;12.57;7.50;;;;;;;26.52;22.02;99156.69;4933854;29;20102;-76
2023/12/29 11:07:34;;;;;;;11.38;7.03;;;;;;;26.21;22.49;99143.19;4902285;29;20493;-75
2023/12/29 11:10:02;;;;;;;11.60;7.40;;;;;;;26.03;22.50;99147.34;4917579;29;20036;-77
2023/12/29 11:12:31;;;;;;;16.10;7.60;;;;;;;25.78;23.15;99149.78;4918568;29;20039;-80
2023/12/29 11:14:57;;;;;;;14.82;7.55;;;;;;;25.63;23.64;99144.63;4918697;29;20099;-77
2023/12/29 11:17:22;;;;;;;24.40;7.95;;;;;;;25.42;24.58;99140.31;4934258;29;20035;-79
2023/12/29 11:19:48;;;;;;;18.42;8.55;;;;;;;25.31;25.47;99136.38;4902809;29;20040;-74
2023/12/29 11:22:13;;;;;;;20.33;9.00;;;;;;;24.59;28.24;99137.75;4918294;29;20545;-80
2023/12/29 11:24:39;;;;;;;13.48;8.65;;;;;;;23.57;25.79;99131.91;4917957;29;20407;-76
2023/12/29 11:27:06;;;;;;;13.73;8.30;;;;;;;23.31;28.38;99125.31;4901850;29;20058;-78